Time;durP1;ratioP1;P1;durP2;ratioP2;P2;SDS_P1;SDS_P2;PMS_P1;PMS_P2;Temp;Humidity;BMP_temperature;BMP_pressure;BME280_temperature;BME280_humidity;BME280_pressure;Samples;Min_cycle;Max_cycle;Signal;HPM_P1;HPM_P2
2023/03/27 00:00:15;;;;;;;6.27;0.97;;;3.10;99.90;;;;;;4935270;29;20477;-59
2023/03/27 00:02:45;;;;;;;3.80;1.10;;;3.20;99.90;;;;;;4927274;29;20486;-61
2023/03/27 00:05:15;;;;;;;5.07;1.30;;;3.20;99.90;;;;;;4927191;29;20566;-60
2023/03/27 00:07:43;;;;;;;3.00;0.90;;;3.10;99.90;;;;;;4935252;29;21010;-60
2023/03/27 00:10:12;;;;;;;3.60;1.07;;;3.10;99.90;;;;;;4935672;29;20472;-60
2023/03/27 00:12:43;;;;;;;3.43;1.20;;;3.10;99.90;;;;;;4933698;29;20491;-60
2023/03/27 00:15:15;;;;;;;2.80;1.20;;;3.00;99.90;;;;;;4928443;29;20808;-60
2023/03/27 00:17:46;;;;;;;1.60;0.90;;;2.90;99.90;;;;;;4935307;29;20503;-60
2023/03/27 00:20:15;;;;;;;6.07;1.27;;;2.90;99.90;;;;;;4930331;29;21017;-60
2023/03/27 00:22:43;;;;;;;4.60;1.00;;;2.80;99.90;;;;;;4932400;29;20480;-60
2023/03/27 00:25:11;;;;;;;3.20;1.10;;;2.90;99.90;;;;;;4935132;29;20481;-60
2023/03/27 00:27:41;;;;;;;3.07;1.03;;;2.80;99.90;;;;;;4935027;29;20478;-60
2023/03/27 00:30:10;;;;;;;3.67;0.83;;;3.00;99.90;;;;;;4935824;29;20550;-61
2023/03/27 00:32:38;;;;;;;2.23;0.70;;;3.30;99.90;;;;;;4930306;29;20505;-61
2023/03/27 00:35:08;;;;;;;1.20;0.80;;;3.50;99.90;;;;;;4927112;29;20505;-60
2023/03/27 00:37:36;;;;;;;5.70;1.23;;;3.60;99.90;;;;;;4918373;29;20485;-60
2023/03/27 00:40:06;;;;;;;2.63;0.97;;;3.70;99.90;;;;;;4919695;29;21011;-60
2023/03/27 00:42:36;;;;;;;2.83;1.00;;;3.60;99.90;;;;;;4932606;29;20998;-60
2023/03/27 00:45:09;;;;;;;2.53;0.80;;;3.70;99.90;;;;;;4931194;29;20466;-60
2023/03/27 00:47:39;;;;;;;3.80;1.00;;;3.70;99.90;;;;;;4938602;29;20875;-60
2023/03/27 00:50:12;;;;;;;4.43;1.10;;;3.80;99.90;;;;;;4927351;29;20492;-61
2023/03/27 00:52:46;;;;;;;2.57;0.90;;;3.90;99.90;;;;;;4935610;29;20493;-60
2023/03/27 00:55:16;;;;;;;4.70;1.13;;;3.80;99.90;;;;;;4938473;29;21014;-60
2023/03/27 00:57:49;;;;;;;7.13;1.00;;;3.80;99.90;;;;;;4937154;29;20496;-60
2023/03/27 01:00:43;;;;;;;3.83;1.20;;;4.00;99.90;;;;;;4946279;23;20482;31
2023/03/27 01:03:11;;;;;;;4.17;0.97;;;4.00;99.90;;;;;;4899437;29;20580;-59
2023/03/27 01:05:40;;;;;;;4.73;0.90;;;4.00;99.90;;;;;;4882105;29;20482;-59
2023/03/27 01:08:10;;;;;;;4.10;1.10;;;4.10;99.90;;;;;;4882711;29;20988;-60
2023/03/27 01:10:49;;;;;;;4.20;1.10;;;4.00;99.90;;;;;;4865760;29;20482;-58
2023/03/27 01:13:31;;;;;;;3.77;1.17;;;4.00;99.90;;;;;;4865597;29;20496;-59
2023/03/27 01:16:06;;;;;;;5.20;0.90;;;3.90;99.90;;;;;;4882196;29;20466;-59
2023/03/27 01:18:46;;;;;;;1.20;0.70;;;3.80;99.90;;;;;;4882019;29;20524;-59
2023/03/27 01:21:45;;;;;;;3.43;1.20;;;3.70;99.90;;;;;;4876130;29;20466;-59
2023/03/27 01:24:47;;;;;;;2.43;0.90;;;3.70;99.90;;;;;;4896554;29;20473;-59
2023/03/27 01:27:19;;;;;;;3.83;0.87;;;3.90;99.90;;;;;;4842128;29;20484;-59
2023/03/27 01:30:08;;;;;;;3.73;1.10;;;3.90;99.90;;;;;;4896690;29;20471;-59
2023/03/27 01:33:25;;;;;;;5.43;1.20;;;4.00;99.90;;;;;;4871928;29;20854;-59
2023/03/27 01:36:39;;;;;;;5.07;1.40;;;4.00;99.90;;;;;;4806492;29;20632;-59
2023/03/27 01:39:28;;;;;;;5.30;1.47;;;3.90;99.90;;;;;;4833790;29;20479;-60
2023/03/27 01:42:03;;;;;;;4.30;1.17;;;3.80;99.90;;;;;;4893986;29;20525;-59
2023/03/27 01:44:38;;;;;;;6.00;1.20;;;3.70;99.90;;;;;;4864857;29;20478;-60
2023/03/27 01:47:21;;;;;;;4.43;1.37;;;3.40;99.90;;;;;;4865070;29;20480;-58
2023/03/27 01:49:54;;;;;;;4.73;1.13;;;3.40;99.90;;;;;;4864849;29;20474;-59
2023/03/27 01:52:28;;;;;;;4.03;1.30;;;3.40;99.90;;;;;;4881213;29;20977;-59
2023/03/27 01:55:03;;;;;;;6.60;1.33;;;3.10;99.90;;;;;;4881689;29;20829;-59
2023/03/27 01:57:38;;;;;;;7.77;1.37;;;3.00;99.90;;;;;;4864609;29;20512;-60
2023/03/27 02:00:21;;;;;;;6.60;1.40;;;2.80;99.90;;;;;;4864482;29;20886;-59
2023/03/27 02:02:53;;;;;;;7.53;1.30;;;2.70;99.90;;;;;;4862701;29;20477;-59
2023/03/27 02:05:27;;;;;;;4.23;1.10;;;2.70;99.90;;;;;;4862381;29;20465;-59
2023/03/27 02:08:02;;;;;;;7.07;1.80;;;2.70;99.90;;;;;;4862714;29;20465;-59
2023/03/27 02:10:38;;;;;;;8.87;1.37;;;2.60;99.90;;;;;;4861300;29;20476;-60
2023/03/27 02:13:18;;;;;;;9.50;1.50;;;2.70;99.90;;;;;;4845869;29;20833;-59
2023/03/27 02:15:48;;;;;;;8.13;1.60;;;2.60;99.90;;;;;;4874620;29;20573;-59
2023/03/27 02:18:22;;;;;;;5.40;1.20;;;2.60;99.90;;;;;;4842722;29;20493;-59
2023/03/27 02:20:50;;;;;;;7.77;1.50;;;2.60;99.90;;;;;;4859484;29;20825;-60
2023/03/27 02:23:21;;;;;;;6.23;1.27;;;2.50;99.90;;;;;;4862454;29;20469;-59
2023/03/27 02:25:53;;;;;;;7.97;1.50;;;2.60;99.90;;;;;;4846060;29;20499;-60
2023/03/27 02:28:35;;;;;;;6.17;1.27;;;2.90;99.90;;;;;;4862249;29;20475;-59
2023/03/27 02:31:15;;;;;;;6.07;1.33;;;3.00;99.90;;;;;;4861709;29;20620;-59
2023/03/27 02:34:42;;;;;;;6.30;1.40;;;3.10;99.90;;;;;;4860643;29;21025;-60
2023/03/27 02:37:22;;;;;;;4.90;1.17;;;3.50;99.90;;;;;;4840846;29;20483;-59
2023/03/27 02:40:40;;;;;;;6.63;1.17;;;3.50;99.90;;;;;;4854742;29;20506;-58
2023/03/27 02:43:57;;;;;;;4.50;1.20;;;3.50;99.90;;;;;;4804703;29;20942;-59
2023/03/27 02:46:51;;;;;;;4.40;1.30;;;3.60;99.90;;;;;;4801786;29;20538;-59
2023/03/27 02:49:25;;;;;;;3.27;1.23;;;3.50;99.90;;;;;;4854086;29;20487;-59
2023/03/27 02:51:58;;;;;;;8.43;1.37;;;3.60;99.90;;;;;;4861793;29;20531;-59
2023/03/27 02:54:32;;;;;;;3.97;1.30;;;3.40;99.90;;;;;;4861229;29;20961;-59
2023/03/27 02:57:06;;;;;;;4.67;1.70;;;3.40;99.90;;;;;;4860526;29;20483;-59
2023/03/27 03:00:06;;;;;;;4.77;1.40;;;3.20;99.90;;;;;;4851288;29;20523;-60
2023/03/27 03:02:40;;;;;;;6.93;1.57;;;3.50;99.90;;;;;;4875077;29;20538;-58
2023/03/27 03:05:16;;;;;;;7.00;1.40;;;3.50;99.90;;;;;;4875731;29;20507;-59
2023/03/27 03:07:45;;;;;;;8.37;1.80;;;3.70;99.90;;;;;;4875805;29;20479;-58
2023/03/27 03:10:14;;;;;;;5.50;1.70;;;3.30;99.90;;;;;;4844732;29;20484;-59
2023/03/27 03:12:42;;;;;;;7.33;1.77;;;3.10;99.90;;;;;;4861136;29;20495;-59
2023/03/27 03:15:12;;;;;;;7.83;1.50;;;3.20;99.90;;;;;;4875687;29;20549;-59
2023/03/27 03:17:41;;;;;;;5.03;1.80;;;3.40;99.90;;;;;;4861366;29;20928;-60
2023/03/27 03:20:11;;;;;;;4.30;1.37;;;3.50;99.90;;;;;;4868072;29;20560;-58
2023/03/27 03:22:40;;;;;;;6.27;1.60;;;3.40;99.90;;;;;;4861276;29;20947;-59
2023/03/27 03:25:10;;;;;;;4.20;1.20;;;3.30;99.90;;;;;;4875789;29;20569;-59
2023/03/27 03:27:40;;;;;;;5.73;1.50;;;3.00;99.90;;;;;;4859700;29;20497;-59
2023/03/27 03:30:14;;;;;;;6.83;1.63;;;2.90;99.90;;;;;;4844208;29;20508;-59
2023/03/27 03:33:06;;;;;;;4.37;1.60;;;2.70;99.90;;;;;;4872702;29;20576;-59
2023/03/27 03:35:34;;;;;;;8.57;1.60;;;2.60;99.90;;;;;;4830201;29;20475;-60
2023/03/27 03:38:09;;;;;;;5.63;1.60;;;2.50;99.90;;;;;;4826512;29;20488;-58
2023/03/27 03:40:45;;;;;;;4.67;1.80;;;2.40;99.90;;;;;;4837187;29;20485;-60
2023/03/27 03:43:13;;;;;;;5.07;1.83;;;2.40;99.90;;;;;;4844389;29;20477;-59
2023/03/27 03:45:43;;;;;;;4.60;1.47;;;2.50;99.90;;;;;;4861037;29;20492;-60
2023/03/27 03:48:11;;;;;;;5.07;1.07;;;2.50;99.90;;;;;;4848601;29;20590;-60
2023/03/27 03:50:39;;;;;;;4.67;2.03;;;2.90;99.90;;;;;;4864042;29;20974;-60
2023/03/27 03:53:07;;;;;;;5.43;1.10;;;3.00;99.90;;;;;;4842482;29;20486;-60
2023/03/27 03:55:35;;;;;;;6.50;1.57;;;3.00;99.90;;;;;;4826344;29;20839;-60
2023/03/27 03:58:04;;;;;;;3.40;1.30;;;3.30;99.90;;;;;;4842619;29;20999;-60
2023/03/27 04:00:37;;;;;;;3.73;1.10;;;3.50;99.90;;;;;;4825490;29;20911;-60
2023/03/27 04:03:10;;;;;;;5.00;1.53;;;3.60;99.90;;;;;;4841709;29;20481;-60
2023/03/27 04:05:38;;;;;;;5.20;1.80;;;3.60;99.90;;;;;;4864016;29;20471;-61
2023/03/27 04:08:07;;;;;;;7.67;2.40;;;3.50;99.90;;;;;;4864824;29;20474;-61
2023/03/27 04:10:37;;;;;;;5.93;2.50;;;3.60;99.90;;;;;;4864573;29;20480;-60
2023/03/27 04:13:12;;;;;;;8.37;2.60;;;3.60;99.90;;;;;;4844782;29;20491;-60
2023/03/27 04:15:52;;;;;;;4.17;1.93;;;3.50;99.90;;;;;;4877482;29;21012;-61
2023/03/27 04:18:33;;;;;;;6.33;2.20;;;3.60;99.90;;;;;;4854735;29;20842;-60
2023/03/27 04:21:13;;;;;;;6.50;2.07;;;3.60;99.90;;;;;;4840546;29;20475;-60
2023/03/27 04:23:44;;;;;;;7.27;2.50;;;3.60;99.90;;;;;;4878777;29;20478;-60
2023/03/27 04:26:15;;;;;;;7.70;2.70;;;3.60;99.90;;;;;;4847224;29;20506;-60
2023/03/27 04:29:09;;;;;;;7.17;2.80;;;3.50;99.90;;;;;;4863565;29;20477;-60
2023/03/27 04:32:00;;;;;;;8.73;3.27;;;3.50;99.90;;;;;;4862572;29;20886;-60
2023/03/27 04:34:41;;;;;;;8.23;3.43;;;3.00;99.90;;;;;;4863303;29;20497;-60
2023/03/27 04:37:40;;;;;;;4.77;1.63;;;2.80;99.90;;;;;;4846754;29;20479;-60
2023/03/27 04:40:29;;;;;;;4.00;1.27;;;2.40;99.90;;;;;;4862462;29;20469;-60
2023/03/27 04:42:57;;;;;;;7.57;1.33;;;2.20;99.90;;;;;;4849019;29;20483;-60
2023/03/27 04:45:27;;;;;;;4.53;1.60;;;2.10;99.90;;;;;;4846856;29;20526;-59
2023/03/27 04:47:55;;;;;;;6.80;1.60;;;2.20;99.90;;;;;;4851674;29;20479;-60
2023/03/27 04:50:25;;;;;;;3.60;1.47;;;2.30;99.90;;;;;;4851610;29;20813;-59
2023/03/27 04:52:57;;;;;;;4.40;1.53;;;2.40;99.90;;;;;;4861034;29;20671;-60
2023/03/27 04:55:29;;;;;;;4.53;1.40;;;2.40;99.90;;;;;;4846578;29;20505;-59
2023/03/27 04:57:58;;;;;;;4.97;1.50;;;2.40;99.90;;;;;;4849200;29;20468;-60
2023/03/27 05:00:28;;;;;;;3.20;1.23;;;2.20;99.90;;;;;;4845884;29;21015;-59
2023/03/27 05:03:19;;;;;;;3.77;1.30;;;2.20;99.90;;;;;;4861118;29;20994;-60
2023/03/27 05:06:11;;;;;;;2.43;1.03;;;2.20;99.90;;;;;;4862644;29;20875;-60
2023/03/27 05:08:41;;;;;;;3.60;1.20;;;2.10;99.90;;;;;;4846579;29;20983;-60
2023/03/27 05:11:18;;;;;;;2.93;1.10;;;2.00;99.90;;;;;;4847115;29;20479;-59
2023/03/27 05:13:46;;;;;;;7.03;1.40;;;2.10;99.90;;;;;;4864365;29;20485;-60
2023/03/27 05:16:17;;;;;;;4.80;1.13;;;2.20;99.90;;;;;;4846698;29;20999;-60
2023/03/27 05:18:49;;;;;;;5.97;1.57;;;2.10;99.90;;;;;;4847885;29;20531;-59
2023/03/27 05:21:18;;;;;;;2.97;1.03;;;2.40;99.90;;;;;;4863511;29;20483;-59
2023/03/27 05:23:47;;;;;;;5.00;1.13;;;2.20;99.90;;;;;;4878677;29;20481;-60
2023/03/27 05:26:21;;;;;;;4.37;1.23;;;2.30;99.90;;;;;;4878942;29;20475;-59
2023/03/27 05:28:57;;;;;;;5.00;0.93;;;2.30;99.90;;;;;;4862286;29;20485;-60
2023/03/27 05:31:26;;;;;;;2.93;1.10;;;2.30;99.90;;;;;;4880975;29;20838;-59
2023/03/27 05:34:11;;;;;;;3.50;1.23;;;2.30;99.90;;;;;;4836958;29;21002;-60
2023/03/27 05:36:42;;;;;;;4.17;1.40;;;2.40;99.90;;;;;;4842972;29;20520;-60
2023/03/27 05:39:15;;;;;;;5.40;1.50;;;2.30;99.90;;;;;;4847368;29;20484;-60
2023/03/27 05:41:46;;;;;;;2.77;1.10;;;2.40;99.90;;;;;;4845186;29;20580;-60
2023/03/27 05:44:22;;;;;;;3.33;1.17;;;2.40;99.90;;;;;;4861866;29;20533;-60
2023/03/27 05:46:51;;;;;;;5.37;1.50;;;2.40;99.90;;;;;;4875974;29;20528;-60
2023/03/27 05:49:25;;;;;;;4.67;1.10;;;2.30;99.90;;;;;;4848178;29;20511;-59
2023/03/27 05:52:00;;;;;;;3.27;0.90;;;2.30;99.90;;;;;;4845582;29;20481;-60
2023/03/27 05:54:30;;;;;;;5.93;1.30;;;2.30;99.90;;;;;;4844681;29;20515;-59
2023/03/27 05:57:03;;;;;;;3.73;1.17;;;2.30;99.90;;;;;;4834745;29;20486;-60
2023/03/27 05:59:32;;;;;;;3.93;0.80;;;2.30;99.90;;;;;;4843592;29;20472;-60
2023/03/27 06:02:17;;;;;;;4.73;1.40;;;2.40;99.90;;;;;;4836846;29;20488;-60
2023/03/27 06:04:55;;;;;;;5.63;1.30;;;2.30;99.90;;;;;;4842383;29;20474;-60
2023/03/27 06:07:31;;;;;;;3.03;0.90;;;2.50;99.90;;;;;;4841952;29;20478;-59
2023/03/27 06:10:06;;;;;;;5.93;1.47;;;2.60;99.90;;;;;;4839964;29;20605;-60
2023/03/27 06:12:43;;;;;;;7.13;1.40;;;2.50;99.90;;;;;;4843787;29;20556;-60
2023/03/27 06:15:31;;;;;;;6.93;1.67;;;2.50;99.90;;;;;;4842058;29;20508;-60
2023/03/27 06:18:19;;;;;;;3.90;1.30;;;2.50;99.90;;;;;;4844179;29;21044;-60
2023/03/27 06:20:48;;;;;;;3.30;1.00;;;2.50;99.90;;;;;;4842973;29;20556;-59
2023/03/27 06:23:17;;;;;;;4.20;0.90;;;2.50;99.90;;;;;;4843295;29;20893;-59
2023/03/27 06:25:46;;;;;;;2.20;1.20;;;2.60;99.90;;;;;;4841832;29;20479;-60
2023/03/27 06:28:14;;;;;;;4.37;1.00;;;2.60;99.90;;;;;;4842004;29;20466;-60
2023/03/27 06:30:48;;;;;;;1.93;0.80;;;2.70;99.90;;;;;;4841045;29;20582;-60
2023/03/27 06:33:52;;;;;;;2.40;0.70;;;2.70;99.90;;;;;;4816795;29;20573;-59
2023/03/27 06:36:39;;;;;;;3.70;1.03;;;2.70;99.90;;;;;;4840610;29;20546;-60
2023/03/27 06:39:11;;;;;;;2.70;1.10;;;2.60;99.90;;;;;;4843079;29;20468;-60
2023/03/27 06:41:47;;;;;;;3.63;0.90;;;2.70;99.90;;;;;;4841679;29;20534;-60
2023/03/27 06:44:18;;;;;;;1.90;1.07;;;2.60;99.90;;;;;;4842548;29;20489;-60
2023/03/27 06:47:05;;;;;;;3.00;1.20;;;2.70;99.90;;;;;;4850003;29;20481;-60
2023/03/27 06:50:07;;;;;;;2.67;1.10;;;2.60;99.90;;;;;;4809233;29;20565;-60
2023/03/27 06:52:36;;;;;;;2.67;1.20;;;2.70;99.90;;;;;;4872308;29;20537;-60
2023/03/27 06:55:27;;;;;;;3.80;1.30;;;2.70;99.90;;;;;;4841610;29;20882;-58
2023/03/27 06:57:56;;;;;;;4.43;1.60;;;2.70;99.90;;;;;;4841610;29;20579;-60
2023/03/27 07:00:27;;;;;;;6.03;1.30;;;2.90;99.90;;;;;;4841236;29;20577;-59
2023/03/27 07:03:25;;;;;;;5.50;1.17;;;2.90;99.90;;;;;;4859952;29;20479;-57
2023/03/27 07:06:02;;;;;;;5.77;1.33;;;2.90;99.90;;;;;;4860645;29;20469;-60
2023/03/27 07:08:48;;;;;;;5.63;1.10;;;2.90;99.90;;;;;;4861221;29;20622;-60
2023/03/27 07:11:19;;;;;;;2.87;1.27;;;3.00;99.90;;;;;;4844435;29;20485;-60
2023/03/27 07:13:55;;;;;;;3.60;1.37;;;3.10;99.90;;;;;;4844408;29;20882;-60
2023/03/27 07:16:28;;;;;;;2.60;0.93;;;3.20;99.90;;;;;;4844201;29;21043;-60
2023/03/27 07:18:57;;;;;;;5.67;1.33;;;3.40;99.90;;;;;;4844000;29;20564;-60
2023/03/27 07:21:31;;;;;;;3.87;1.57;;;3.50;99.90;;;;;;4859396;29;20486;-60
2023/03/27 07:24:00;;;;;;;5.57;1.60;;;3.60;99.90;;;;;;4874152;29;20984;-60
2023/03/27 07:26:34;;;;;;;5.40;1.57;;;3.70;99.90;;;;;;4843931;29;20499;-60
2023/03/27 07:29:09;;;;;;;6.17;1.40;;;4.10;99.90;;;;;;4858874;29;20557;-60
2023/03/27 07:31:38;;;;;;;3.43;1.13;;;4.40;99.90;;;;;;4843654;29;20498;-60
2023/03/27 07:34:31;;;;;;;2.77;1.10;;;4.40;99.90;;;;;;4868375;29;20484;-60
2023/03/27 07:37:22;;;;;;;3.53;1.20;;;4.20;99.90;;;;;;4837060;29;20478;-58
2023/03/27 07:40:13;;;;;;;4.53;1.47;;;4.00;99.90;;;;;;4831653;29;20525;-60
2023/03/27 07:42:48;;;;;;;4.93;1.30;;;3.90;99.90;;;;;;4841656;29;20477;-60
2023/03/27 07:45:22;;;;;;;3.50;1.40;;;4.00;99.90;;;;;;4842288;29;21059;-60
2023/03/27 07:47:55;;;;;;;4.90;1.30;;;4.00;99.90;;;;;;4845282;29;20929;-60
2023/03/27 07:50:24;;;;;;;4.43;1.20;;;3.90;99.90;;;;;;4859904;29;20500;-60
2023/03/27 07:52:52;;;;;;;4.53;1.30;;;4.00;99.90;;;;;;4843228;29;20988;-60
2023/03/27 07:55:21;;;;;;;5.03;1.30;;;4.00;99.90;;;;;;4838501;29;20490;-60
2023/03/27 07:58:09;;;;;;;3.50;1.37;;;4.00;99.90;;;;;;4869253;29;20570;-60
2023/03/27 08:00:41;;;;;;;4.70;1.30;;;4.00;99.90;;;;;;4842649;29;20483;-60
2023/03/27 08:03:13;;;;;;;3.50;1.63;;;4.20;99.90;;;;;;4845946;29;20993;-60
2023/03/27 08:05:56;;;;;;;7.63;1.30;;;4.30;99.90;;;;;;4841117;29;20475;-59
2023/03/27 08:08:28;;;;;;;6.57;1.50;;;4.30;99.90;;;;;;4868433;29;20476;-59
2023/03/27 08:10:58;;;;;;;2.73;0.90;;;4.20;99.90;;;;;;4856063;29;20494;-60
2023/03/27 08:13:31;;;;;;;6.03;1.77;;;4.40;99.90;;;;;;4855885;29;20482;-60
2023/03/27 08:16:05;;;;;;;2.53;1.00;;;4.70;99.90;;;;;;4868411;29;20582;-60
2023/03/27 08:18:35;;;;;;;2.00;0.63;;;4.80;99.90;;;;;;4844479;29;20481;-60
2023/03/27 08:21:07;;;;;;;2.33;0.70;;;5.00;99.90;;;;;;4869923;29;20487;-60
2023/03/27 08:23:36;;;;;;;5.23;1.07;;;5.10;99.90;;;;;;4869373;29;20468;-60
2023/03/27 08:26:23;;;;;;;2.87;0.97;;;5.40;99.90;;;;;;4855374;29;20465;-60
2023/03/27 08:29:04;;;;;;;4.10;1.10;;;5.60;99.90;;;;;;4867426;29;20482;-60
2023/03/27 08:31:34;;;;;;;4.37;1.07;;;5.80;99.90;;;;;;4871815;29;20483;-60
2023/03/27 08:34:04;;;;;;;3.67;0.93;;;6.40;99.90;;;;;;4842979;29;20764;-60
2023/03/27 08:36:41;;;;;;;6.13;1.20;;;6.90;99.90;;;;;;4871774;29;20572;-60
2023/03/27 08:39:10;;;;;;;3.37;0.83;;;7.20;99.90;;;;;;4854261;29;20232;-60
2023/03/27 08:42:02;;;;;;;3.03;1.00;;;6.80;99.90;;;;;;4842997;29;20235;-60
2023/03/27 08:44:37;;;;;;;1.50;0.60;;;6.60;99.90;;;;;;4873934;29;20757;-60
2023/03/27 08:47:19;;;;;;;1.83;0.80;;;6.10;99.90;;;;;;4842935;29;20270;-60
2023/03/27 08:49:57;;;;;;;1.73;0.60;;;5.10;99.90;;;;;;4881623;29;20575;-60
2023/03/27 08:52:32;;;;;;;2.47;0.50;;;4.40;99.90;;;;;;4845799;29;20276;-59
2023/03/27 08:55:13;;;;;;;2.27;0.50;;;3.90;99.90;;;;;;4877720;29;20254;-60
2023/03/27 08:57:50;;;;;;;1.67;0.70;;;3.50;99.90;;;;;;4877515;29;20466;-60
2023/03/27 09:00:28;;;;;;;0.90;0.50;;;3.50;99.90;;;;;;4877184;29;21024;-60
2023/03/27 09:03:13;;;;;;;1.30;0.50;;;3.50;99.90;;;;;;4881808;29;20483;-60
2023/03/27 09:05:44;;;;;;;4.17;0.67;;;3.60;99.90;;;;;;4846358;29;20479;-59
2023/03/27 09:08:22;;;;;;;6.60;0.90;;;4.00;99.90;;;;;;4862522;29;20595;-60
2023/03/27 09:10:58;;;;;;;3.67;0.60;;;4.60;99.90;;;;;;4845268;29;20477;-60
2023/03/27 09:13:39;;;;;;;2.30;0.77;;;4.90;99.90;;;;;;4845219;29;20468;-60
2023/03/27 09:16:17;;;;;;;1.80;0.80;;;4.70;99.90;;;;;;4861764;29;20997;-60
2023/03/27 09:18:52;;;;;;;2.37;0.70;;;4.50;99.90;;;;;;4845470;29;20237;-60
2023/03/27 09:21:34;;;;;;;4.87;0.93;;;4.40;99.90;;;;;;4846184;29;20832;-60
2023/03/27 09:24:15;;;;;;;4.73;1.10;;;4.30;99.90;;;;;;4846015;29;20471;-60
2023/03/27 09:27:17;;;;;;;4.77;1.13;;;4.30;99.90;;;;;;4862749;29;20982;-60
2023/03/27 09:30:03;;;;;;;3.90;0.90;;;4.50;99.90;;;;;;4861446;29;20994;-60
2023/03/27 09:33:04;;;;;;;1.20;0.67;;;4.80;99.90;;;;;;4856661;29;20514;-60
2023/03/27 09:35:37;;;;;;;3.70;0.70;;;4.90;99.90;;;;;;4846726;29;20474;-60
2023/03/27 09:38:21;;;;;;;4.40;1.17;;;5.00;99.90;;;;;;4860771;29;20535;-60
2023/03/27 09:40:55;;;;;;;2.40;0.60;;;5.10;99.90;;;;;;4872181;29;20538;-60
2023/03/27 09:43:30;;;;;;;3.67;0.90;;;5.30;99.90;;;;;;4869223;29;20261;-59
2023/03/27 09:46:01;;;;;;;3.73;0.70;;;5.60;99.90;;;;;;4845302;29;20308;-60
2023/03/27 09:48:36;;;;;;;3.53;0.90;;;6.20;99.90;;;;;;4847155;29;20655;-60
2023/03/27 09:51:35;;;;;;;2.50;0.80;;;6.80;99.90;;;;;;4839113;29;20241;-60
2023/03/27 09:54:06;;;;;;;1.33;0.60;;;7.60;99.90;;;;;;4862115;29;20238;-60
2023/03/27 09:56:40;;;;;;;1.90;0.60;;;8.20;99.90;;;;;;4845059;29;20231;-61
2023/03/27 09:59:18;;;;;;;2.80;0.50;;;8.30;99.90;;;;;;4860411;29;20222;-60
2023/03/27 10:01:47;;;;;;;3.30;0.80;;;7.90;99.90;;;;;;4873604;29;20337;-60
2023/03/27 10:04:20;;;;;;;2.03;0.60;;;7.20;99.90;;;;;;4844869;29;20238;-60
2023/03/27 10:07:00;;;;;;;2.90;0.70;;;6.70;99.90;;;;;;4845132;29;20660;-60
2023/03/27 10:09:41;;;;;;;4.40;0.70;;;6.50;99.90;;;;;;4846865;29;20233;-60
2023/03/27 10:12:18;;;;;;;4.33;0.77;;;6.60;99.90;;;;;;4875793;29;20230;-60
2023/03/27 10:14:50;;;;;;;3.97;1.27;;;7.30;99.90;;;;;;4845151;29;20266;-60
2023/03/27 10:17:28;;;;;;;3.13;0.80;;;7.50;99.90;;;;;;4845121;29;20271;-60
2023/03/27 10:20:12;;;;;;;3.87;0.77;;;7.40;99.90;;;;;;4852466;29;20295;-60
2023/03/27 10:22:43;;;;;;;5.53;0.80;;;7.80;99.90;;;;;;4875792;29;20237;-60
2023/03/27 10:25:18;;;;;;;2.37;0.60;;;8.80;99.90;;;;;;4861814;29;20700;-60
2023/03/27 10:27:53;;;;;;;5.90;0.90;;;9.70;99.90;;;;;;4876062;29;20227;-59
2023/03/27 10:30:35;;;;;;;3.03;0.80;;;9.30;99.90;;;;;;4844614;29;20241;-60
2023/03/27 10:33:32;;;;;;;7.60;1.87;;;8.80;99.90;;;;;;4867155;29;20237;-60
2023/03/27 10:36:36;;;;;;;3.13;1.10;;;8.20;99.90;;;;;;4842777;29;20238;-60
2023/03/27 10:39:12;;;;;;;5.50;0.90;;;7.80;99.90;;;;;;4844815;29;20233;-60
2023/03/27 10:42:05;;;;;;;3.90;1.07;;;8.40;99.90;;;;;;4844832;29;20739;-60
2023/03/27 10:44:37;;;;;;;5.60;1.30;;;8.80;99.90;;;;;;4848197;29;20717;-60
2023/03/27 10:47:14;;;;;;;5.33;0.90;;;9.40;99.90;;;;;;4869194;29;20232;-60
2023/03/27 10:49:47;;;;;;;5.87;1.13;;;10.20;99.90;;;;;;4861627;29;20227;-61
2023/03/27 10:52:36;;;;;;;3.23;0.83;;;10.40;99.90;;;;;;4844419;29;20234;-60
2023/03/27 10:55:43;;;;;;;1.73;0.73;;;9.80;99.90;;;;;;4862922;29;20239;-60
2023/03/27 10:58:23;;;;;;;3.30;0.77;;;8.80;99.90;;;;;;4847469;29;20239;-60
2023/03/27 11:00:57;;;;;;;5.17;1.00;;;7.50;99.90;;;;;;4858500;29;20230;-61
2023/03/27 11:03:33;;;;;;;3.17;1.27;;;7.10;99.90;;;;;;4848642;29;20250;-60
2023/03/27 11:06:09;;;;;;;2.63;0.63;;;6.90;99.90;;;;;;4852363;29;20355;-60
2023/03/27 11:08:51;;;;;;;7.57;1.10;;;6.90;99.90;;;;;;4852192;29;20235;-60
2023/03/27 11:11:28;;;;;;;3.93;0.80;;;7.40;99.90;;;;;;4854887;29;20226;-60
2023/03/27 11:14:01;;;;;;;3.53;0.90;;;7.90;99.90;;;;;;4844021;29;20242;-60
2023/03/27 11:16:35;;;;;;;5.97;0.80;;;7.50;99.90;;;;;;4875784;29;20238;-60
2023/03/27 11:19:29;;;;;;;1.70;0.67;;;6.80;99.90;;;;;;4867125;29;20245;-60
2023/03/27 11:22:25;;;;;;;6.47;1.00;;;6.40;99.90;;;;;;4841293;29;20245;-60
2023/03/27 11:25:01;;;;;;;2.77;0.70;;;6.30;99.90;;;;;;4843918;29;20227;-60
2023/03/27 11:27:35;;;;;;;4.00;0.70;;;6.30;99.90;;;;;;4869028;29;20635;-60
2023/03/27 11:30:25;;;;;;;1.87;0.70;;;5.90;99.90;;;;;;4873148;29;20324;-60
2023/03/27 11:33:15;;;;;;;2.03;0.60;;;5.50;99.90;;;;;;4878154;29;20318;-60
2023/03/27 11:35:49;;;;;;;0.93;0.50;;;5.60;99.90;;;;;;4864661;29;20239;-60
2023/03/27 11:38:50;;;;;;;2.30;0.63;;;6.10;99.90;;;;;;4864341;29;20250;-60
2023/03/27 11:41:20;;;;;;;2.67;0.60;;;6.60;99.90;;;;;;4848320;29;20622;-60
2023/03/27 11:43:48;;;;;;;1.67;0.50;;;6.70;99.90;;;;;;4843164;29;20231;-60
2023/03/27 11:46:59;;;;;;;3.50;0.80;;;6.80;99.90;;;;;;4837231;29;20756;-60
2023/03/27 11:50:00;;;;;;;3.50;0.97;;;7.00;99.90;;;;;;4873639;29;20288;-60
2023/03/27 11:52:41;;;;;;;1.90;0.50;;;7.30;99.90;;;;;;4879966;29;20638;-60
2023/03/27 11:55:23;;;;;;;2.13;0.47;;;7.40;99.90;;;;;;4859755;29;20268;-60
2023/03/27 11:58:11;;;;;;;3.43;0.60;;;7.50;99.90;;;;;;4874160;29;20246;-60
2023/03/27 12:00:52;;;;;;;4.13;0.70;;;7.40;99.90;;;;;;4866820;29;20254;-60
2023/03/27 12:04:07;;;;;;;4.20;0.90;;;7.30;99.90;;;;;;4856137;29;20298;-60
2023/03/27 12:07:06;;;;;;;3.03;0.90;;;6.90;99.90;;;;;;4781832;29;20225;-60
2023/03/27 12:09:58;;;;;;;4.60;0.90;;;7.20;99.90;;;;;;4769503;29;20268;-60
2023/03/27 12:13:22;;;;;;;2.07;0.87;;;7.40;99.90;;;;;;4867743;29;20738;-60
2023/03/27 12:16:21;;;;;;;2.23;0.70;;;7.70;99.90;;;;;;4876077;29;20682;-60
2023/03/27 12:19:05;;;;;;;3.60;0.60;;;7.50;99.90;;;;;;4862019;29;20806;-60
2023/03/27 12:22:10;;;;;;;2.60;0.90;;;7.40;99.90;;;;;;4850764;29;20241;-60
2023/03/27 12:25:12;;;;;;;3.63;0.70;;;7.20;99.90;;;;;;4863324;29;20233;-60
2023/03/27 12:28:00;;;;;;;2.37;0.70;;;7.40;99.90;;;;;;4868765;29;20226;-60
2023/03/27 12:30:50;;;;;;;1.43;0.50;;;7.50;99.90;;;;;;4873749;29;20239;-60
2023/03/27 12:33:35;;;;;;;1.57;0.50;;;7.60;99.90;;;;;;4877425;29;20254;-60
2023/03/27 12:36:07;;;;;;;2.83;0.80;;;7.50;99.90;;;;;;4871134;29;20257;-60
2023/03/27 12:38:39;;;;;;;3.87;0.77;;;7.60;99.90;;;;;;4853179;29;20269;-60
2023/03/27 12:41:19;;;;;;;3.67;0.57;;;7.70;99.90;;;;;;4870385;29;20236;-60
2023/03/27 12:44:03;;;;;;;2.57;0.70;;;7.80;99.90;;;;;;4855541;29;20257;-61
2023/03/27 12:46:38;;;;;;;2.67;0.70;;;8.00;99.90;;;;;;4845270;29;20231;-60
2023/03/27 12:49:42;;;;;;;5.70;0.90;;;8.00;99.90;;;;;;4877062;29;20265;-61
2023/03/27 12:52:24;;;;;;;3.17;0.80;;;8.00;99.90;;;;;;4844908;29;20233;-60
2023/03/27 12:55:28;;;;;;;2.70;1.00;;;8.10;99.90;;;;;;4862730;29;20238;-61
2023/03/27 12:58:32;;;;;;;2.90;0.80;;;7.80;99.90;;;;;;4850486;29;20231;-61
2023/03/27 13:01:31;;;;;;;6.33;0.90;;;7.20;99.90;;;;;;4862494;29;20253;-60
2023/03/27 13:04:48;;;;;;;5.23;0.80;;;7.10;99.90;;;;;;4880349;29;20226;-60
2023/03/27 13:07:23;;;;;;;3.57;1.10;;;7.20;99.90;;;;;;4876900;29;20241;-60
2023/03/27 13:10:21;;;;;;;5.93;0.80;;;7.40;99.90;;;;;;4875168;29;20259;-60
2023/03/27 13:13:12;;;;;;;4.83;0.90;;;7.10;99.90;;;;;;4861553;29;20230;-60
2023/03/27 13:16:01;;;;;;;5.03;1.23;;;6.60;99.90;;;;;;4875220;29;20230;-60
2023/03/27 13:19:00;;;;;;;4.17;1.40;;;6.20;99.90;;;;;;4876397;29;20250;-60
2023/03/27 13:21:37;;;;;;;4.17;0.90;;;6.30;99.90;;;;;;4876636;29;20290;-60
2023/03/27 13:24:29;;;;;;;4.03;1.20;;;6.50;99.90;;;;;;4868475;29;20304;-60
2023/03/27 13:27:12;;;;;;;6.83;1.10;;;6.70;99.90;;;;;;4861265;29;20324;-60
2023/03/27 13:29:41;;;;;;;4.97;0.70;;;6.80;99.90;;;;;;4852156;29;20262;-60
2023/03/27 13:32:40;;;;;;;5.90;1.33;;;6.90;99.90;;;;;;4849903;29;20241;-60
2023/03/27 13:35:33;;;;;;;5.07;1.13;;;6.70;99.90;;;;;;4837092;29;20245;-60
2023/03/27 13:38:03;;;;;;;4.30;0.90;;;6.50;99.90;;;;;;4844085;29;20226;-60
2023/03/27 13:40:43;;;;;;;7.00;1.00;;;6.30;99.90;;;;;;4850772;29;20270;-60
2023/03/27 13:43:22;;;;;;;3.97;0.90;;;6.00;99.90;;;;;;4860688;29;20240;-60
2023/03/27 13:46:00;;;;;;;5.43;1.03;;;6.00;99.90;;;;;;4858286;29;20237;-60
2023/03/27 13:49:03;;;;;;;5.27;1.27;;;6.20;99.90;;;;;;4864625;29;20230;-60
2023/03/27 13:52:01;;;;;;;3.53;0.70;;;6.30;99.90;;;;;;4851194;29;20238;-60
2023/03/27 13:54:47;;;;;;;2.40;0.80;;;6.40;99.90;;;;;;4851501;29;20291;-60
2023/03/27 13:57:30;;;;;;;2.90;0.67;;;6.10;99.90;;;;;;4875708;29;20713;-60
2023/03/27 14:00:21;;;;;;;5.50;0.80;;;5.90;99.90;;;;;;4849154;29;20242;-60